sensor_id;sensor_type;location;lat;lon;timestamp;P1;durP1;ratioP1;P2;durP2;ratioP2
14396;SDS011;50653;0.000;0.000;2022-07-06T00:01:39;2.27;;;2.17;;
14396;SDS011;50653;0.000;0.000;2022-07-06T00:04:04;1.90;;;1.80;;
14396;SDS011;50653;0.000;0.000;2022-07-06T00:06:31;3.30;;;1.87;;
14396;SDS011;50653;0.000;0.000;2022-07-06T00:08:57;1.90;;;1.80;;
14396;SDS011;50653;0.000;0.000;2022-07-06T00:11:23;2.30;;;2.20;;
14396;SDS011;50653;0.000;0.000;2022-07-06T00:13:49;2.90;;;2.67;;
14396;SDS011;50653;0.000;0.000;2022-07-06T00:16:15;1.83;;;1.73;;
14396;SDS011;50653;0.000;0.000;2022-07-06T00:18:41;2.63;;;2.43;;
14396;SDS011;50653;0.000;0.000;2022-07-06T00:21:07;1.70;;;1.60;;
14396;SDS011;50653;0.000;0.000;2022-07-06T00:23:32;2.60;;;1.70;;
14396;SDS011;50653;0.000;0.000;2022-07-06T00:25:58;2.23;;;2.03;;
14396;SDS011;50653;0.000;0.000;2022-07-06T00:28:24;7.83;;;1.83;;
14396;SDS011;50653;0.000;0.000;2022-07-06T00:30:49;2.57;;;2.47;;
14396;SDS011;50653;0.000;0.000;2022-07-06T00:33:15;2.47;;;2.20;;
14396;SDS011;50653;0.000;0.000;2022-07-06T00:35:41;1.70;;;1.60;;
14396;SDS011;50653;0.000;0.000;2022-07-06T00:38:07;1.50;;;1.40;;
14396;SDS011;50653;0.000;0.000;2022-07-06T00:40:33;2.33;;;2.20;;
14396;SDS011;50653;0.000;0.000;2022-07-06T00:42:58;1.90;;;1.80;;
14396;SDS011;50653;0.000;0.000;2022-07-06T00:45:24;2.17;;;1.90;;
14396;SDS011;50653;0.000;0.000;2022-07-06T00:47:50;2.90;;;2.37;;
14396;SDS011;50653;0.000;0.000;2022-07-06T00:50:16;2.00;;;1.80;;
14396;SDS011;50653;0.000;0.000;2022-07-06T00:52:46;4.20;;;1.93;;
14396;SDS011;50653;0.000;0.000;2022-07-06T00:55:14;5.73;;;1.90;;
14396;SDS011;50653;0.000;0.000;2022-07-06T00:57:42;1.93;;;1.83;;
14396;SDS011;50653;0.000;0.000;2022-07-06T01:00:08;2.17;;;2.07;;
14396;SDS011;50653;0.000;0.000;2022-07-06T01:02:36;2.10;;;1.90;;
14396;SDS011;50653;0.000;0.000;2022-07-06T01:05:06;1.90;;;1.80;;
14396;SDS011;50653;0.000;0.000;2022-07-06T01:07:33;2.03;;;1.93;;
14396;SDS011;50653;0.000;0.000;2022-07-06T01:10:01;2.20;;;2.10;;
14396;SDS011;50653;0.000;0.000;2022-07-06T01:12:28;3.23;;;2.00;;
14396;SDS011;50653;0.000;0.000;2022-07-06T01:14:54;1.80;;;1.70;;
14396;SDS011;50653;0.000;0.000;2022-07-06T01:17:19;2.23;;;2.03;;
14396;SDS011;50653;0.000;0.000;2022-07-06T01:19:46;1.70;;;1.60;;
14396;SDS011;50653;0.000;0.000;2022-07-06T01:22:11;1.73;;;1.63;;
14396;SDS011;50653;0.000;0.000;2022-07-06T01:24:37;2.03;;;1.93;;
14396;SDS011;50653;0.000;0.000;2022-07-06T01:27:03;2.90;;;2.50;;
14396;SDS011;50653;0.000;0.000;2022-07-06T01:29:30;2.47;;;2.37;;
14396;SDS011;50653;0.000;0.000;2022-07-06T01:31:59;2.60;;;2.40;;
14396;SDS011;50653;0.000;0.000;2022-07-06T01:34:25;2.47;;;2.33;;
14396;SDS011;50653;0.000;0.000;2022-07-06T01:36:51;2.10;;;2.00;;
14396;SDS011;50653;0.000;0.000;2022-07-06T01:39:18;2.50;;;2.40;;
14396;SDS011;50653;0.000;0.000;2022-07-06T01:41:44;2.00;;;1.90;;
14396;SDS011;50653;0.000;0.000;2022-07-06T01:44:09;2.20;;;2.00;;
14396;SDS011;50653;0.000;0.000;2022-07-06T01:46:36;2.70;;;2.60;;
14396;SDS011;50653;0.000;0.000;2022-07-06T01:49:03;2.97;;;2.47;;
14396;SDS011;50653;0.000;0.000;2022-07-06T01:51:30;2.07;;;1.97;;
14396;SDS011;50653;0.000;0.000;2022-07-06T01:53:57;2.70;;;2.60;;
14396;SDS011;50653;0.000;0.000;2022-07-06T01:56:23;2.70;;;2.50;;
14396;SDS011;50653;0.000;0.000;2022-07-06T01:58:52;2.93;;;2.57;;
14396;SDS011;50653;0.000;0.000;2022-07-06T02:01:20;2.43;;;2.20;;
14396;SDS011;50653;0.000;0.000;2022-07-06T02:03:46;2.70;;;2.50;;
14396;SDS011;50653;0.000;0.000;2022-07-06T02:06:12;2.43;;;2.33;;
14396;SDS011;50653;0.000;0.000;2022-07-06T02:08:39;2.40;;;2.30;;
14396;SDS011;50653;0.000;0.000;2022-07-06T02:11:05;5.07;;;2.53;;
14396;SDS011;50653;0.000;0.000;2022-07-06T02:13:34;3.53;;;2.60;;
14396;SDS011;50653;0.000;0.000;2022-07-06T02:16:01;2.60;;;2.50;;
14396;SDS011;50653;0.000;0.000;2022-07-06T02:18:27;2.97;;;2.77;;
14396;SDS011;50653;0.000;0.000;2022-07-06T02:20:55;2.13;;;2.03;;
14396;SDS011;50653;0.000;0.000;2022-07-06T02:23:21;3.03;;;2.93;;
14396;SDS011;50653;0.000;0.000;2022-07-06T02:25:48;3.30;;;2.73;;
14396;SDS011;50653;0.000;0.000;2022-07-06T02:28:15;2.97;;;2.87;;
14396;SDS011;50653;0.000;0.000;2022-07-06T02:30:40;2.90;;;2.70;;
14396;SDS011;50653;0.000;0.000;2022-07-06T02:33:06;3.03;;;2.93;;
14396;SDS011;50653;0.000;0.000;2022-07-06T02:35:32;2.30;;;2.20;;
14396;SDS011;50653;0.000;0.000;2022-07-06T02:37:59;2.53;;;2.33;;
14396;SDS011;50653;0.000;0.000;2022-07-06T02:40:25;2.37;;;2.27;;
14396;SDS011;50653;0.000;0.000;2022-07-06T02:42:50;3.87;;;2.60;;
14396;SDS011;50653;0.000;0.000;2022-07-06T02:45:17;2.60;;;2.50;;
14396;SDS011;50653;0.000;0.000;2022-07-06T02:47:43;2.83;;;2.60;;
14396;SDS011;50653;0.000;0.000;2022-07-06T02:50:08;2.70;;;2.60;;
14396;SDS011;50653;0.000;0.000;2022-07-06T02:52:34;2.70;;;2.50;;
14396;SDS011;50653;0.000;0.000;2022-07-06T02:55:01;3.47;;;2.43;;
14396;SDS011;50653;0.000;0.000;2022-07-06T02:57:27;4.13;;;2.50;;
14396;SDS011;50653;0.000;0.000;2022-07-06T02:59:53;3.20;;;2.13;;
14396;SDS011;50653;0.000;0.000;2022-07-06T03:02:19;2.27;;;2.17;;
14396;SDS011;50653;0.000;0.000;2022-07-06T03:04:45;2.50;;;2.40;;
14396;SDS011;50653;0.000;0.000;2022-07-06T03:07:12;2.57;;;2.37;;
14396;SDS011;50653;0.000;0.000;2022-07-06T03:09:38;2.90;;;2.30;;
14396;SDS011;50653;0.000;0.000;2022-07-06T03:12:03;3.50;;;2.73;;
14396;SDS011;50653;0.000;0.000;2022-07-06T03:14:31;2.90;;;2.70;;
14396;SDS011;50653;0.000;0.000;2022-07-06T03:16:57;2.83;;;2.50;;
14396;SDS011;50653;0.000;0.000;2022-07-06T03:19:23;2.60;;;2.47;;
14396;SDS011;50653;0.000;0.000;2022-07-06T03:21:48;2.97;;;2.77;;
14396;SDS011;50653;0.000;0.000;2022-07-06T03:24:14;7.20;;;2.80;;
14396;SDS011;50653;0.000;0.000;2022-07-06T03:26:40;2.70;;;2.53;;
14396;SDS011;50653;0.000;0.000;2022-07-06T03:29:06;2.57;;;2.47;;
14396;SDS011;50653;0.000;0.000;2022-07-06T03:31:32;2.80;;;2.60;;
14396;SDS011;50653;0.000;0.000;2022-07-06T03:33:58;2.47;;;2.27;;
14396;SDS011;50653;0.000;0.000;2022-07-06T03:36:25;2.70;;;2.60;;
14396;SDS011;50653;0.000;0.000;2022-07-06T03:38:50;4.67;;;2.87;;
14396;SDS011;50653;0.000;0.000;2022-07-06T03:41:17;2.60;;;2.50;;
14396;SDS011;50653;0.000;0.000;2022-07-06T03:43:42;2.70;;;2.60;;
14396;SDS011;50653;0.000;0.000;2022-07-06T03:46:11;3.30;;;3.10;;
14396;SDS011;50653;0.000;0.000;2022-07-06T03:48:37;2.50;;;2.40;;
14396;SDS011;50653;0.000;0.000;2022-07-06T03:51:05;3.20;;;2.90;;
14396;SDS011;50653;0.000;0.000;2022-07-06T03:53:31;2.90;;;2.30;;
14396;SDS011;50653;0.000;0.000;2022-07-06T03:55:57;3.10;;;2.90;;
14396;SDS011;50653;0.000;0.000;2022-07-06T03:58:41;3.20;;;3.00;;
14396;SDS011;50653;0.000;0.000;2022-07-06T04:01:07;3.30;;;3.00;;
14396;SDS011;50653;0.000;0.000;2022-07-06T04:03:33;2.57;;;2.47;;
14396;SDS011;50653;0.000;0.000;2022-07-06T04:05:59;3.47;;;3.17;;
14396;SDS011;50653;0.000;0.000;2022-07-06T04:08:24;3.50;;;2.90;;
14396;SDS011;50653;0.000;0.000;2022-07-06T04:10:55;3.10;;;2.90;;
14396;SDS011;50653;0.000;0.000;2022-07-06T04:13:21;3.20;;;3.00;;
14396;SDS011;50653;0.000;0.000;2022-07-06T04:15:47;3.30;;;3.07;;
14396;SDS011;50653;0.000;0.000;2022-07-06T04:18:12;3.23;;;2.93;;
14396;SDS011;50653;0.000;0.000;2022-07-06T04:20:45;14.60;;;3.57;;
14396;SDS011;50653;0.000;0.000;2022-07-06T04:23:12;3.43;;;3.23;;
14396;SDS011;50653;0.000;0.000;2022-07-06T04:25:38;7.77;;;3.53;;
14396;SDS011;50653;0.000;0.000;2022-07-06T04:28:04;4.20;;;3.90;;
14396;SDS011;50653;0.000;0.000;2022-07-06T04:30:31;5.80;;;2.93;;
14396;SDS011;50653;0.000;0.000;2022-07-06T04:32:57;5.43;;;3.90;;
14396;SDS011;50653;0.000;0.000;2022-07-06T04:35:26;2.90;;;2.80;;
14396;SDS011;50653;0.000;0.000;2022-07-06T04:37:53;2.70;;;2.50;;
14396;SDS011;50653;0.000;0.000;2022-07-06T04:40:20;3.73;;;2.77;;
14396;SDS011;50653;0.000;0.000;2022-07-06T04:42:49;4.03;;;2.70;;
14396;SDS011;50653;0.000;0.000;2022-07-06T04:45:15;4.50;;;2.70;;
14396;SDS011;50653;0.000;0.000;2022-07-06T04:47:41;2.93;;;2.83;;
14396;SDS011;50653;0.000;0.000;2022-07-06T04:50:09;2.93;;;2.73;;
14396;SDS011;50653;0.000;0.000;2022-07-06T04:52:36;2.63;;;2.53;;
14396;SDS011;50653;0.000;0.000;2022-07-06T04:55:02;2.50;;;2.40;;
14396;SDS011;50653;0.000;0.000;2022-07-06T04:57:30;2.80;;;2.60;;
14396;SDS011;50653;0.000;0.000;2022-07-06T04:59:57;5.50;;;3.60;;
14396;SDS011;50653;0.000;0.000;2022-07-06T05:02:23;2.80;;;2.40;;
14396;SDS011;50653;0.000;0.000;2022-07-06T05:04:49;4.90;;;3.00;;
14396;SDS011;50653;0.000;0.000;2022-07-06T05:07:15;4.70;;;3.10;;
14396;SDS011;50653;0.000;0.000;2022-07-06T05:09:41;3.30;;;3.10;;
14396;SDS011;50653;0.000;0.000;2022-07-06T05:12:07;3.00;;;2.80;;
14396;SDS011;50653;0.000;0.000;2022-07-06T05:14:33;3.30;;;3.00;;
14396;SDS011;50653;0.000;0.000;2022-07-06T05:16:59;2.90;;;2.70;;
14396;SDS011;50653;0.000;0.000;2022-07-06T05:19:25;4.67;;;4.40;;
14396;SDS011;50653;0.000;0.000;2022-07-06T05:21:51;2.70;;;2.60;;
14396;SDS011;50653;0.000;0.000;2022-07-06T05:24:17;3.83;;;3.60;;
14396;SDS011;50653;0.000;0.000;2022-07-06T05:26:44;2.40;;;2.20;;
14396;SDS011;50653;0.000;0.000;2022-07-06T05:29:10;2.87;;;2.77;;
14396;SDS011;50653;0.000;0.000;2022-07-06T05:31:37;2.80;;;2.70;;
14396;SDS011;50653;0.000;0.000;2022-07-06T05:34:02;2.73;;;2.63;;
14396;SDS011;50653;0.000;0.000;2022-07-06T05:36:28;2.70;;;2.53;;
14396;SDS011;50653;0.000;0.000;2022-07-06T05:38:54;2.90;;;2.70;;
14396;SDS011;50653;0.000;0.000;2022-07-06T05:41:20;2.97;;;2.77;;
14396;SDS011;50653;0.000;0.000;2022-07-06T05:43:45;2.40;;;2.30;;
14396;SDS011;50653;0.000;0.000;2022-07-06T05:46:11;2.30;;;2.20;;
14396;SDS011;50653;0.000;0.000;2022-07-06T05:48:38;3.10;;;2.80;;
14396;SDS011;50653;0.000;0.000;2022-07-06T05:51:23;3.27;;;3.07;;
14396;SDS011;50653;0.000;0.000;2022-07-06T05:53:51;2.60;;;2.20;;
14396;SDS011;50653;0.000;0.000;2022-07-06T05:56:18;3.10;;;2.40;;
14396;SDS011;50653;0.000;0.000;2022-07-06T05:58:44;3.57;;;3.33;;
14396;SDS011;50653;0.000;0.000;2022-07-06T06:01:10;6.23;;;2.87;;
14396;SDS011;50653;0.000;0.000;2022-07-06T06:03:37;3.03;;;2.83;;
14396;SDS011;50653;0.000;0.000;2022-07-06T06:06:04;6.70;;;2.37;;
14396;SDS011;50653;0.000;0.000;2022-07-06T06:08:30;2.87;;;2.77;;
14396;SDS011;50653;0.000;0.000;2022-07-06T06:10:56;3.07;;;2.87;;
14396;SDS011;50653;0.000;0.000;2022-07-06T06:13:23;2.50;;;2.40;;
14396;SDS011;50653;0.000;0.000;2022-07-06T06:15:49;8.93;;;3.10;;
14396;SDS011;50653;0.000;0.000;2022-07-06T06:18:15;3.13;;;2.93;;
14396;SDS011;50653;0.000;0.000;2022-07-06T06:20:43;2.40;;;2.13;;
14396;SDS011;50653;0.000;0.000;2022-07-06T06:23:10;2.50;;;2.40;;
14396;SDS011;50653;0.000;0.000;2022-07-06T06:25:36;3.47;;;3.37;;
14396;SDS011;50653;0.000;0.000;2022-07-06T06:28:04;3.20;;;2.60;;
14396;SDS011;50653;0.000;0.000;2022-07-06T06:30:34;3.00;;;2.80;;
14396;SDS011;50653;0.000;0.000;2022-07-06T06:33:11;6.30;;;2.77;;
14396;SDS011;50653;0.000;0.000;2022-07-06T06:35:37;5.83;;;2.83;;
14396;SDS011;50653;0.000;0.000;2022-07-06T06:38:06;3.00;;;2.60;;
14396;SDS011;50653;0.000;0.000;2022-07-06T06:40:32;5.00;;;2.80;;
14396;SDS011;50653;0.000;0.000;2022-07-06T06:42:57;2.73;;;2.63;;
14396;SDS011;50653;0.000;0.000;2022-07-06T06:45:24;3.07;;;2.77;;
14396;SDS011;50653;0.000;0.000;2022-07-06T06:47:50;2.50;;;2.30;;
14396;SDS011;50653;0.000;0.000;2022-07-06T06:50:15;4.10;;;3.23;;
14396;SDS011;50653;0.000;0.000;2022-07-06T06:52:41;2.57;;;2.47;;
14396;SDS011;50653;0.000;0.000;2022-07-06T06:55:07;2.50;;;2.40;;
14396;SDS011;50653;0.000;0.000;2022-07-06T06:57:33;3.10;;;2.90;;
14396;SDS011;50653;0.000;0.000;2022-07-06T06:59:59;2.83;;;2.50;;
14396;SDS011;50653;0.000;0.000;2022-07-06T07:02:24;4.43;;;2.60;;
14396;SDS011;50653;0.000;0.000;2022-07-06T07:04:50;3.10;;;3.00;;
14396;SDS011;50653;0.000;0.000;2022-07-06T07:07:15;3.00;;;2.77;;
14396;SDS011;50653;0.000;0.000;2022-07-06T07:09:41;4.03;;;2.60;;
14396;SDS011;50653;0.000;0.000;2022-07-06T07:12:07;3.37;;;2.80;;
14396;SDS011;50653;0.000;0.000;2022-07-06T07:14:33;2.73;;;2.50;;
14396;SDS011;50653;0.000;0.000;2022-07-06T07:16:58;7.43;;;2.10;;
14396;SDS011;50653;0.000;0.000;2022-07-06T07:19:24;2.70;;;2.50;;
14396;SDS011;50653;0.000;0.000;2022-07-06T07:21:49;6.20;;;2.10;;
14396;SDS011;50653;0.000;0.000;2022-07-06T07:24:15;2.73;;;2.50;;
14396;SDS011;50653;0.000;0.000;2022-07-06T07:26:40;3.87;;;2.67;;
14396;SDS011;50653;0.000;0.000;2022-07-06T07:29:06;2.80;;;2.60;;
14396;SDS011;50653;0.000;0.000;2022-07-06T07:31:32;3.50;;;2.60;;
14396;SDS011;50653;0.000;0.000;2022-07-06T07:33:57;2.97;;;2.67;;
14396;SDS011;50653;0.000;0.000;2022-07-06T07:36:24;4.07;;;3.00;;
14396;SDS011;50653;0.000;0.000;2022-07-06T07:38:50;5.80;;;2.60;;
14396;SDS011;50653;0.000;0.000;2022-07-06T07:41:16;2.87;;;2.67;;
14396;SDS011;50653;0.000;0.000;2022-07-06T07:43:42;3.10;;;2.50;;
14396;SDS011;50653;0.000;0.000;2022-07-06T07:46:08;2.80;;;2.60;;
14396;SDS011;50653;0.000;0.000;2022-07-06T07:48:33;5.10;;;2.37;;
14396;SDS011;50653;0.000;0.000;2022-07-06T07:51:00;3.00;;;2.40;;
14396;SDS011;50653;0.000;0.000;2022-07-06T07:53:25;2.43;;;2.33;;
14396;SDS011;50653;0.000;0.000;2022-07-06T07:55:51;2.43;;;2.33;;
14396;SDS011;50653;0.000;0.000;2022-07-06T07:58:17;2.80;;;2.60;;
14396;SDS011;50653;0.000;0.000;2022-07-06T08:00:43;2.80;;;2.70;;
14396;SDS011;50653;0.000;0.000;2022-07-06T08:03:09;2.70;;;2.50;;
14396;SDS011;50653;0.000;0.000;2022-07-06T08:05:35;2.40;;;2.20;;
14396;SDS011;50653;0.000;0.000;2022-07-06T08:08:00;2.20;;;2.10;;
14396;SDS011;50653;0.000;0.000;2022-07-06T08:10:26;2.33;;;1.57;;
14396;SDS011;50653;0.000;0.000;2022-07-06T08:12:52;2.30;;;2.20;;
14396;SDS011;50653;0.000;0.000;2022-07-06T08:15:17;2.50;;;2.30;;
14396;SDS011;50653;0.000;0.000;2022-07-06T08:17:43;2.33;;;2.23;;
14396;SDS011;50653;0.000;0.000;2022-07-06T08:20:09;2.03;;;1.93;;
14396;SDS011;50653;0.000;0.000;2022-07-06T08:22:36;2.40;;;2.30;;
14396;SDS011;50653;0.000;0.000;2022-07-06T08:25:02;3.07;;;1.97;;
14396;SDS011;50653;0.000;0.000;2022-07-06T08:27:29;2.10;;;2.00;;
14396;SDS011;50653;0.000;0.000;2022-07-06T08:29:58;1.73;;;1.63;;
14396;SDS011;50653;0.000;0.000;2022-07-06T08:32:25;2.07;;;1.87;;
14396;SDS011;50653;0.000;0.000;2022-07-06T08:34:51;2.40;;;2.30;;
14396;SDS011;50653;0.000;0.000;2022-07-06T08:37:18;2.27;;;2.07;;
14396;SDS011;50653;0.000;0.000;2022-07-06T08:39:44;2.90;;;1.80;;
14396;SDS011;50653;0.000;0.000;2022-07-06T08:42:10;4.50;;;1.90;;
14396;SDS011;50653;0.000;0.000;2022-07-06T08:44:37;1.43;;;1.27;;
14396;SDS011;50653;0.000;0.000;2022-07-06T08:47:06;1.67;;;1.40;;
14396;SDS011;50653;0.000;0.000;2022-07-06T08:49:34;1.37;;;1.27;;
14396;SDS011;50653;0.000;0.000;2022-07-06T08:52:02;1.70;;;1.60;;
14396;SDS011;50653;0.000;0.000;2022-07-06T08:54:29;1.47;;;1.10;;
14396;SDS011;50653;0.000;0.000;2022-07-06T08:56:55;1.93;;;1.40;;
14396;SDS011;50653;0.000;0.000;2022-07-06T08:59:21;1.40;;;1.30;;
14396;SDS011;50653;0.000;0.000;2022-07-06T09:01:46;1.53;;;0.97;;
14396;SDS011;50653;0.000;0.000;2022-07-06T09:04:12;1.50;;;1.40;;
14396;SDS011;50653;0.000;0.000;2022-07-06T09:06:42;1.27;;;1.17;;
14396;SDS011;50653;0.000;0.000;2022-07-06T09:09:10;10.90;;;1.50;;
14396;SDS011;50653;0.000;0.000;2022-07-06T09:11:45;1.30;;;1.20;;
14396;SDS011;50653;0.000;0.000;2022-07-06T09:14:11;4.00;;;2.03;;
14396;SDS011;50653;0.000;0.000;2022-07-06T09:16:37;2.23;;;1.30;;
14396;SDS011;50653;0.000;0.000;2022-07-06T09:19:02;2.97;;;1.93;;
14396;SDS011;50653;0.000;0.000;2022-07-06T09:21:29;1.40;;;1.30;;
14396;SDS011;50653;0.000;0.000;2022-07-06T09:23:58;1.63;;;1.53;;
14396;SDS011;50653;0.000;0.000;2022-07-06T09:26:27;3.27;;;1.40;;
14396;SDS011;50653;0.000;0.000;2022-07-06T09:28:54;1.87;;;1.70;;
14396;SDS011;50653;0.000;0.000;2022-07-06T09:31:21;1.73;;;1.63;;
14396;SDS011;50653;0.000;0.000;2022-07-06T09:33:53;1.97;;;1.87;;
14396;SDS011;50653;0.000;0.000;2022-07-06T09:41:48;1.70;;;1.27;;
14396;SDS011;50653;0.000;0.000;2022-07-06T09:44:33;3.00;;;1.70;;
14396;SDS011;50653;0.000;0.000;2022-07-06T09:47:04;2.00;;;1.90;;
14396;SDS011;50653;0.000;0.000;2022-07-06T09:49:32;1.67;;;1.57;;
14396;SDS011;50653;0.000;0.000;2022-07-06T09:52:00;1.47;;;1.37;;
14396;SDS011;50653;0.000;0.000;2022-07-06T09:54:28;2.10;;;2.00;;
14396;SDS011;50653;0.000;0.000;2022-07-06T09:56:54;1.97;;;1.87;;
14396;SDS011;50653;0.000;0.000;2022-07-06T09:59:25;1.93;;;1.60;;
14396;SDS011;50653;0.000;0.000;2022-07-06T10:01:52;2.40;;;1.67;;
14396;SDS011;50653;0.000;0.000;2022-07-06T10:04:26;1.50;;;1.40;;
14396;SDS011;50653;0.000;0.000;2022-07-06T10:06:53;2.60;;;1.23;;
14396;SDS011;50653;0.000;0.000;2022-07-06T10:09:20;2.13;;;1.47;;
14396;SDS011;50653;0.000;0.000;2022-07-06T10:11:52;1.50;;;1.40;;
14396;SDS011;50653;0.000;0.000;2022-07-06T10:14:24;1.90;;;1.80;;
14396;SDS011;50653;0.000;0.000;2022-07-06T10:16:55;1.30;;;1.17;;
14396;SDS011;50653;0.000;0.000;2022-07-06T10:19:22;8.13;;;2.00;;
14396;SDS011;50653;0.000;0.000;2022-07-06T10:21:48;1.70;;;1.60;;
14396;SDS011;50653;0.000;0.000;2022-07-06T10:24:14;1.77;;;1.67;;
14396;SDS011;50653;0.000;0.000;2022-07-06T10:26:40;1.57;;;1.47;;
14396;SDS011;50653;0.000;0.000;2022-07-06T10:29:07;1.07;;;1.00;;
14396;SDS011;50653;0.000;0.000;2022-07-06T10:31:34;2.57;;;1.40;;
14396;SDS011;50653;0.000;0.000;2022-07-06T10:34:04;1.97;;;1.87;;
14396;SDS011;50653;0.000;0.000;2022-07-06T10:36:31;1.90;;;1.80;;
14396;SDS011;50653;0.000;0.000;2022-07-06T10:39:02;1.67;;;1.57;;
14396;SDS011;50653;0.000;0.000;2022-07-06T10:41:48;1.73;;;1.43;;
14396;SDS011;50653;0.000;0.000;2022-07-06T10:44:14;1.67;;;1.57;;
14396;SDS011;50653;0.000;0.000;2022-07-06T10:46:41;1.67;;;1.40;;
14396;SDS011;50653;0.000;0.000;2022-07-06T10:49:19;1.73;;;1.40;;
14396;SDS011;50653;0.000;0.000;2022-07-06T10:51:46;1.47;;;1.37;;
14396;SDS011;50653;0.000;0.000;2022-07-06T10:54:12;3.40;;;1.53;;
14396;SDS011;50653;0.000;0.000;2022-07-06T10:59:13;1.50;;;1.40;;
14396;SDS011;50653;0.000;0.000;2022-07-06T11:04:36;2.30;;;1.43;;
14396;SDS011;50653;0.000;0.000;2022-07-06T11:07:07;1.30;;;1.20;;
14396;SDS011;50653;0.000;0.000;2022-07-06T11:09:34;1.07;;;0.97;;
14396;SDS011;50653;0.000;0.000;2022-07-06T11:12:11;5.93;;;2.43;;
14396;SDS011;50653;0.000;0.000;2022-07-06T11:14:42;1.40;;;1.13;;
14396;SDS011;50653;0.000;0.000;2022-07-06T11:17:09;3.30;;;1.50;;
14396;SDS011;50653;0.000;0.000;2022-07-06T11:19:35;1.93;;;1.83;;
14396;SDS011;50653;0.000;0.000;2022-07-06T11:22:05;1.63;;;1.53;;
14396;SDS011;50653;0.000;0.000;2022-07-06T11:24:33;1.27;;;1.17;;
14396;SDS011;50653;0.000;0.000;2022-07-06T11:27:00;2.00;;;1.90;;
14396;SDS011;50653;0.000;0.000;2022-07-06T11:29:27;1.70;;;1.60;;
14396;SDS011;50653;0.000;0.000;2022-07-06T11:31:54;1.20;;;1.03;;
14396;SDS011;50653;0.000;0.000;2022-07-06T11:34:25;1.53;;;1.40;;
14396;SDS011;50653;0.000;0.000;2022-07-06T11:36:56;1.10;;;1.10;;
14396;SDS011;50653;0.000;0.000;2022-07-06T11:39:22;2.07;;;1.53;;
14396;SDS011;50653;0.000;0.000;2022-07-06T11:41:51;1.47;;;1.37;;
14396;SDS011;50653;0.000;0.000;2022-07-06T11:44:16;2.20;;;2.00;;
14396;SDS011;50653;0.000;0.000;2022-07-06T11:46:42;2.50;;;1.67;;
14396;SDS011;50653;0.000;0.000;2022-07-06T11:49:08;2.83;;;1.40;;
14396;SDS011;50653;0.000;0.000;2022-07-06T11:51:35;2.00;;;1.13;;
14396;SDS011;50653;0.000;0.000;2022-07-06T11:54:13;2.37;;;1.20;;
14396;SDS011;50653;0.000;0.000;2022-07-06T11:56:54;1.50;;;1.40;;
14396;SDS011;50653;0.000;0.000;2022-07-06T11:59:22;2.23;;;1.80;;
14396;SDS011;50653;0.000;0.000;2022-07-06T12:01:48;1.97;;;1.87;;
14396;SDS011;50653;0.000;0.000;2022-07-06T12:04:14;3.60;;;1.77;;
14396;SDS011;50653;0.000;0.000;2022-07-06T12:06:40;3.70;;;2.00;;
14396;SDS011;50653;0.000;0.000;2022-07-06T12:09:08;1.57;;;1.47;;
14396;SDS011;50653;0.000;0.000;2022-07-06T12:11:34;1.90;;;1.73;;
14396;SDS011;50653;0.000;0.000;2022-07-06T12:14:02;4.07;;;1.40;;
14396;SDS011;50653;0.000;0.000;2022-07-06T12:16:39;2.40;;;2.10;;
14396;SDS011;50653;0.000;0.000;2022-07-06T12:19:05;1.70;;;1.60;;
14396;SDS011;50653;0.000;0.000;2022-07-06T12:21:33;1.60;;;1.30;;
14396;SDS011;50653;0.000;0.000;2022-07-06T12:23:59;1.57;;;1.47;;
14396;SDS011;50653;0.000;0.000;2022-07-06T12:26:26;2.37;;;2.27;;
14396;SDS011;50653;0.000;0.000;2022-07-06T12:31:31;6.70;;;2.10;;
14396;SDS011;50653;0.000;0.000;2022-07-06T12:34:15;1.93;;;1.77;;
14396;SDS011;50653;0.000;0.000;2022-07-06T12:36:47;2.20;;;2.00;;
14396;SDS011;50653;0.000;0.000;2022-07-06T12:39:17;3.77;;;2.20;;
14396;SDS011;50653;0.000;0.000;2022-07-06T12:41:51;2.77;;;2.40;;
14396;SDS011;50653;0.000;0.000;2022-07-06T12:44:24;3.30;;;1.83;;
14396;SDS011;50653;0.000;0.000;2022-07-06T12:46:50;4.10;;;2.07;;
14396;SDS011;50653;0.000;0.000;2022-07-06T12:49:29;2.00;;;1.90;;
14396;SDS011;50653;0.000;0.000;2022-07-06T12:51:59;3.80;;;2.03;;
14396;SDS011;50653;0.000;0.000;2022-07-06T12:54:50;3.50;;;1.90;;
14396;SDS011;50653;0.000;0.000;2022-07-06T13:02:21;5.90;;;2.30;;
14396;SDS011;50653;0.000;0.000;2022-07-06T13:04:58;2.10;;;1.90;;
14396;SDS011;50653;0.000;0.000;2022-07-06T13:07:25;1.90;;;1.80;;
14396;SDS011;50653;0.000;0.000;2022-07-06T13:09:52;3.50;;;2.00;;
14396;SDS011;50653;0.000;0.000;2022-07-06T13:12:19;3.93;;;2.27;;
14396;SDS011;50653;0.000;0.000;2022-07-06T13:14:45;1.83;;;1.73;;
14396;SDS011;50653;0.000;0.000;2022-07-06T13:17:11;2.30;;;2.07;;
14396;SDS011;50653;0.000;0.000;2022-07-06T13:19:37;2.00;;;1.80;;
14396;SDS011;50653;0.000;0.000;2022-07-06T13:22:02;2.23;;;2.03;;
14396;SDS011;50653;0.000;0.000;2022-07-06T13:24:28;4.67;;;2.40;;
14396;SDS011;50653;0.000;0.000;2022-07-06T13:26:57;2.40;;;2.30;;
14396;SDS011;50653;0.000;0.000;2022-07-06T13:29:23;1.77;;;1.67;;
14396;SDS011;50653;0.000;0.000;2022-07-06T13:31:49;1.97;;;1.87;;
14396;SDS011;50653;0.000;0.000;2022-07-06T13:34:15;3.20;;;1.83;;
14396;SDS011;50653;0.000;0.000;2022-07-06T13:36:41;3.00;;;1.90;;
14396;SDS011;50653;0.000;0.000;2022-07-06T13:39:07;1.90;;;1.80;;
14396;SDS011;50653;0.000;0.000;2022-07-06T13:41:33;5.17;;;1.80;;
14396;SDS011;50653;0.000;0.000;2022-07-06T13:43:59;4.07;;;2.20;;
14396;SDS011;50653;0.000;0.000;2022-07-06T13:46:26;1.87;;;1.77;;
14396;SDS011;50653;0.000;0.000;2022-07-06T13:48:52;1.90;;;1.70;;
14396;SDS011;50653;0.000;0.000;2022-07-06T13:51:18;4.30;;;2.00;;
14396;SDS011;50653;0.000;0.000;2022-07-06T13:53:44;1.90;;;1.80;;
14396;SDS011;50653;0.000;0.000;2022-07-06T13:56:10;1.80;;;1.63;;
14396;SDS011;50653;0.000;0.000;2022-07-06T13:58:37;2.00;;;1.90;;
14396;SDS011;50653;0.000;0.000;2022-07-06T14:01:04;5.50;;;1.97;;
14396;SDS011;50653;0.000;0.000;2022-07-06T14:03:30;1.63;;;1.53;;
14396;SDS011;50653;0.000;0.000;2022-07-06T14:06:00;3.53;;;2.00;;
14396;SDS011;50653;0.000;0.000;2022-07-06T14:08:29;1.33;;;1.23;;
14396;SDS011;50653;0.000;0.000;2022-07-06T14:10:55;2.00;;;1.90;;
14396;SDS011;50653;0.000;0.000;2022-07-06T14:13:22;1.93;;;1.83;;
14396;SDS011;50653;0.000;0.000;2022-07-06T14:15:48;2.07;;;1.97;;
14396;SDS011;50653;0.000;0.000;2022-07-06T14:18:14;2.50;;;2.40;;
14396;SDS011;50653;0.000;0.000;2022-07-06T14:20:42;2.53;;;2.43;;
14396;SDS011;50653;0.000;0.000;2022-07-06T14:23:08;2.20;;;2.10;;
14396;SDS011;50653;0.000;0.000;2022-07-06T14:25:34;3.53;;;2.40;;
14396;SDS011;50653;0.000;0.000;2022-07-06T14:28:00;5.10;;;2.83;;
14396;SDS011;50653;0.000;0.000;2022-07-06T14:30:27;2.37;;;2.17;;
14396;SDS011;50653;0.000;0.000;2022-07-06T14:32:52;5.90;;;2.23;;
14396;SDS011;50653;0.000;0.000;2022-07-06T14:35:18;3.47;;;2.27;;
14396;SDS011;50653;0.000;0.000;2022-07-06T14:37:44;3.00;;;1.80;;
14396;SDS011;50653;0.000;0.000;2022-07-06T14:40:09;7.17;;;3.00;;
14396;SDS011;50653;0.000;0.000;2022-07-06T14:42:35;4.10;;;2.13;;
14396;SDS011;50653;0.000;0.000;2022-07-06T14:45:01;1.80;;;1.70;;
14396;SDS011;50653;0.000;0.000;2022-07-06T14:47:26;7.43;;;1.83;;
14396;SDS011;50653;0.000;0.000;2022-07-06T14:49:52;4.17;;;2.50;;
14396;SDS011;50653;0.000;0.000;2022-07-06T14:52:18;2.67;;;2.03;;
14396;SDS011;50653;0.000;0.000;2022-07-06T14:54:44;2.83;;;2.33;;
14396;SDS011;50653;0.000;0.000;2022-07-06T14:57:09;2.03;;;1.93;;
14396;SDS011;50653;0.000;0.000;2022-07-06T14:59:35;10.50;;;2.50;;
14396;SDS011;50653;0.000;0.000;2022-07-06T15:02:01;2.20;;;1.90;;
14396;SDS011;50653;0.000;0.000;2022-07-06T15:04:27;2.03;;;1.90;;
14396;SDS011;50653;0.000;0.000;2022-07-06T15:06:53;2.90;;;1.90;;
14396;SDS011;50653;0.000;0.000;2022-07-06T15:09:19;2.23;;;2.03;;
14396;SDS011;50653;0.000;0.000;2022-07-06T15:11:44;2.13;;;2.03;;
14396;SDS011;50653;0.000;0.000;2022-07-06T15:14:11;1.90;;;1.80;;
14396;SDS011;50653;0.000;0.000;2022-07-06T15:16:37;2.90;;;2.60;;
14396;SDS011;50653;0.000;0.000;2022-07-06T15:19:03;1.77;;;1.67;;